sensor_id;sensor_type;location;lat;lon;timestamp;pressure;altitude;pressure_sealevel;temperature;humidity
6020;BME280;3038;51.122;6.840;2023-04-10T00:00:33;101908.59;;;7.49;65.76
6020;BME280;3038;51.122;6.840;2023-04-10T00:02:59;101908.59;;;7.49;66.19
6020;BME280;3038;51.122;6.840;2023-04-10T00:05:28;101905.00;;;7.50;66.40
6020;BME280;3038;51.122;6.840;2023-04-10T00:07:53;101898.66;;;7.53;65.98
6020;BME280;3038;51.122;6.840;2023-04-10T00:10:18;101895.88;;;7.54;66.12
6020;BME280;3038;51.122;6.840;2023-04-10T00:12:44;101893.25;;;7.54;66.00
6020;BME280;3038;51.122;6.840;2023-04-10T00:15:10;101883.53;;;7.55;66.13
6020;BME280;3038;51.122;6.840;2023-04-10T00:17:36;101891.47;;;7.55;66.47
6020;BME280;3038;51.122;6.840;2023-04-10T00:20:01;101878.13;;;7.56;66.40
6020;BME280;3038;51.122;6.840;2023-04-10T00:22:26;101876.22;;;7.58;66.61
6020;BME280;3038;51.122;6.840;2023-04-10T00:24:52;101879.81;;;7.57;66.43
6020;BME280;3038;51.122;6.840;2023-04-10T00:27:17;101874.66;;;7.56;66.19
6020;BME280;3038;51.122;6.840;2023-04-10T00:29:43;101876.44;;;7.55;66.88
6020;BME280;3038;51.122;6.840;2023-04-10T00:32:08;101876.44;;;7.55;66.50
6020;BME280;3038;51.122;6.840;2023-04-10T00:34:33;101871.16;;;7.55;66.30
6020;BME280;3038;51.122;6.840;2023-04-10T00:37:01;101869.47;;;7.54;66.49
6020;BME280;3038;51.122;6.840;2023-04-10T00:39:30;101875.50;;;7.56;67.15
6020;BME280;3038;51.122;6.840;2023-04-10T00:41:55;101867.78;;;7.53;66.50
6020;BME280;3038;51.122;6.840;2023-04-10T00:44:21;101864.16;;;7.54;66.93
6020;BME280;3038;51.122;6.840;2023-04-10T00:46:47;101856.25;;;7.54;66.99
6020;BME280;3038;51.122;6.840;2023-04-10T00:49:12;101860.81;;;7.52;67.45
6020;BME280;3038;51.122;6.840;2023-04-10T00:51:37;101853.84;;;7.51;67.25
6020;BME280;3038;51.122;6.840;2023-04-10T00:54:03;101863.56;;;7.51;67.23
6020;BME280;3038;51.122;6.840;2023-04-10T00:56:32;101857.44;;;7.50;67.48
6020;BME280;3038;51.122;6.840;2023-04-10T00:58:57;101845.78;;;7.53;67.32
6020;BME280;3038;51.122;6.840;2023-04-10T01:01:23;101856.03;;;7.57;67.32
6020;BME280;3038;51.122;6.840;2023-04-10T01:03:49;101849.78;;;7.58;67.62
6020;BME280;3038;51.122;6.840;2023-04-10T01:08:55;101845.25;;;7.60;67.68
6020;BME280;3038;51.122;6.840;2023-04-10T01:12:03;101844.91;;;7.65;67.70
6020;BME280;3038;51.122;6.840;2023-04-10T01:17:21;101835.63;;;7.59;67.71
6020;BME280;3038;51.122;6.840;2023-04-10T01:20:01;101835.63;;;7.59;68.15
6020;BME280;3038;51.122;6.840;2023-04-10T01:25:43;101828.63;;;7.58;68.55
6020;BME280;3038;51.122;6.840;2023-04-10T01:28:26;101818.19;;;7.57;68.08
6020;BME280;3038;51.122;6.840;2023-04-10T01:31:00;101818.06;;;7.58;68.17
6020;BME280;3038;51.122;6.840;2023-04-10T01:33:31;101817.34;;;7.56;67.87
6020;BME280;3038;51.122;6.840;2023-04-10T01:36:02;101812.06;;;7.56;67.81
6020;BME280;3038;51.122;6.840;2023-04-10T01:38:29;101811.31;;;7.54;67.98
6020;BME280;3038;51.122;6.840;2023-04-10T01:40:56;101810.38;;;7.55;68.33
6020;BME280;3038;51.122;6.840;2023-04-10T01:43:24;101804.34;;;7.53;68.03
6020;BME280;3038;51.122;6.840;2023-04-10T01:45:51;101807.25;;;7.50;68.52
6020;BME280;3038;51.122;6.840;2023-04-10T01:50:40;101787.91;;;7.50;68.65
6020;BME280;3038;51.122;6.840;2023-04-10T01:53:06;101797.84;;;7.46;68.03
6020;BME280;3038;51.122;6.840;2023-04-10T01:55:32;101789.91;;;7.46;68.09
6020;BME280;3038;51.122;6.840;2023-04-10T01:57:59;101790.25;;;7.41;69.00
6020;BME280;3038;51.122;6.840;2023-04-10T02:00:26;101790.59;;;7.37;69.16
6020;BME280;3038;51.122;6.840;2023-04-10T02:02:51;101784.97;;;7.41;69.00
6020;BME280;3038;51.122;6.840;2023-04-10T02:05:17;101786.03;;;7.39;69.03
6020;BME280;3038;51.122;6.840;2023-04-10T02:07:45;101782.66;;;7.37;69.19
6020;BME280;3038;51.122;6.840;2023-04-10T02:10:22;101781.84;;;7.36;69.03
6020;BME280;3038;51.122;6.840;2023-04-10T02:12:54;101784.47;;;7.36;68.47
6020;BME280;3038;51.122;6.840;2023-04-10T02:15:25;101782.66;;;7.37;68.37
6020;BME280;3038;51.122;6.840;2023-04-10T02:17:52;101781.09;;;7.34;68.63
6020;BME280;3038;51.122;6.840;2023-04-10T02:20:22;101777.84;;;7.31;68.80
6020;BME280;3038;51.122;6.840;2023-04-10T02:22:48;101770.84;;;7.30;68.35
6020;BME280;3038;51.122;6.840;2023-04-10T02:25:23;101770.13;;;7.28;69.16
6020;BME280;3038;51.122;6.840;2023-04-10T02:27:49;101768.66;;;7.24;68.93
6020;BME280;3038;51.122;6.840;2023-04-10T02:30:16;101775.88;;;7.21;69.14
6020;BME280;3038;51.122;6.840;2023-04-10T02:32:42;101782.22;;;7.19;69.18
6020;BME280;3038;51.122;6.840;2023-04-10T02:35:08;101786.66;;;7.18;68.72
6020;BME280;3038;51.122;6.840;2023-04-10T02:37:36;101781.50;;;7.17;69.31
6020;BME280;3038;51.122;6.840;2023-04-10T02:40:01;101790.38;;;7.16;69.49
6020;BME280;3038;51.122;6.840;2023-04-10T02:42:26;101788.56;;;7.16;68.60
6020;BME280;3038;51.122;6.840;2023-04-10T02:44:52;101786.97;;;7.14;68.86
6020;BME280;3038;51.122;6.840;2023-04-10T02:47:17;101772.22;;;7.11;69.16
6020;BME280;3038;51.122;6.840;2023-04-10T02:49:42;101777.59;;;7.10;69.13
6020;BME280;3038;51.122;6.840;2023-04-10T02:52:08;101774.03;;;7.11;68.98
6020;BME280;3038;51.122;6.840;2023-04-10T02:54:33;101769.66;;;7.10;69.08
6020;BME280;3038;51.122;6.840;2023-04-10T02:56:59;101770.50;;;7.10;69.08
6020;BME280;3038;51.122;6.840;2023-04-10T02:59:26;101770.28;;;7.13;69.01
6020;BME280;3038;51.122;6.840;2023-04-10T03:01:52;101765.97;;;7.12;68.87
6020;BME280;3038;51.122;6.840;2023-04-10T03:04:17;101763.34;;;7.12;68.57
6020;BME280;3038;51.122;6.840;2023-04-10T03:06:43;101763.34;;;7.12;68.54
6020;BME280;3038;51.122;6.840;2023-04-10T03:09:11;101759.72;;;7.13;68.37
6020;BME280;3038;51.122;6.840;2023-04-10T03:11:36;101756.97;;;7.15;68.33
6020;BME280;3038;51.122;6.840;2023-04-10T03:14:03;101751.69;;;7.15;68.38
6020;BME280;3038;51.122;6.840;2023-04-10T03:16:29;101754.44;;;7.13;69.16
6020;BME280;3038;51.122;6.840;2023-04-10T03:18:55;101749.38;;;7.10;68.72
6020;BME280;3038;51.122;6.840;2023-04-10T03:21:20;101747.72;;;7.09;68.52
6020;BME280;3038;51.122;6.840;2023-04-10T03:23:46;101737.38;;;7.06;68.76
6020;BME280;3038;51.122;6.840;2023-04-10T03:26:13;101732.31;;;7.03;68.74
6020;BME280;3038;51.122;6.840;2023-04-10T03:28:39;101731.25;;;7.06;68.75
6020;BME280;3038;51.122;6.840;2023-04-10T03:31:05;101730.63;;;7.02;69.02
6020;BME280;3038;51.122;6.840;2023-04-10T03:33:31;101729.81;;;7.02;68.95
6020;BME280;3038;51.122;6.840;2023-04-10T03:35:56;101725.34;;;7.02;68.72
6020;BME280;3038;51.122;6.840;2023-04-10T03:38:22;101715.00;;;6.99;68.93
6020;BME280;3038;51.122;6.840;2023-04-10T03:40:47;101716.09;;;6.97;68.84
6020;BME280;3038;51.122;6.840;2023-04-10T03:43:13;101712.59;;;6.96;69.11
6020;BME280;3038;51.122;6.840;2023-04-10T03:45:38;101709.22;;;6.94;69.13
6020;BME280;3038;51.122;6.840;2023-04-10T03:48:03;101711.16;;;6.92;69.03
6020;BME280;3038;51.122;6.840;2023-04-10T03:50:29;101714.72;;;6.91;69.00
6020;BME280;3038;51.122;6.840;2023-04-10T03:52:54;101707.88;;;6.88;69.27
6020;BME280;3038;51.122;6.840;2023-04-10T03:55:20;101705.38;;;6.87;68.90
6020;BME280;3038;51.122;6.840;2023-04-10T03:57:46;101705.56;;;6.84;68.75
6020;BME280;3038;51.122;6.840;2023-04-10T04:00:15;101699.03;;;6.77;69.34
6020;BME280;3038;51.122;6.840;2023-04-10T04:02:41;101701.16;;;6.72;69.53
6020;BME280;3038;51.122;6.840;2023-04-10T04:05:07;101694.66;;;6.64;69.69
6020;BME280;3038;51.122;6.840;2023-04-10T04:07:33;101700.16;;;6.61;69.87
6020;BME280;3038;51.122;6.840;2023-04-10T04:09:58;101701.31;;;6.57;69.84
6020;BME280;3038;51.122;6.840;2023-04-10T04:12:24;101703.44;;;6.52;70.14
6020;BME280;3038;51.122;6.840;2023-04-10T04:14:50;101693.13;;;6.49;70.21
6020;BME280;3038;51.122;6.840;2023-04-10T04:17:15;101692.38;;;6.47;70.67
6020;BME280;3038;51.122;6.840;2023-04-10T04:19:41;101698.59;;;6.46;70.86
6020;BME280;3038;51.122;6.840;2023-04-10T04:22:09;101703.16;;;6.44;70.92
6020;BME280;3038;51.122;6.840;2023-04-10T04:24:35;101701.44;;;6.43;70.61
6020;BME280;3038;51.122;6.840;2023-04-10T04:27:00;101695.47;;;6.41;71.62
6020;BME280;3038;51.122;6.840;2023-04-10T04:29:27;101692.94;;;6.39;71.21
6020;BME280;3038;51.122;6.840;2023-04-10T04:31:52;101694.09;;;6.35;71.29
6020;BME280;3038;51.122;6.840;2023-04-10T04:34:18;101692.31;;;6.36;70.81
6020;BME280;3038;51.122;6.840;2023-04-10T04:36:43;101688.19;;;6.32;70.96
6020;BME280;3038;51.122;6.840;2023-04-10T04:39:08;101682.19;;;6.30;71.01
6020;BME280;3038;51.122;6.840;2023-04-10T04:41:34;101680.50;;;6.29;71.41
6020;BME280;3038;51.122;6.840;2023-04-10T04:44:00;101679.56;;;6.30;71.00
6020;BME280;3038;51.122;6.840;2023-04-10T04:46:26;101674.28;;;6.30;70.92
6020;BME280;3038;51.122;6.840;2023-04-10T04:48:52;101681.03;;;6.34;70.94
6020;BME280;3038;51.122;6.840;2023-04-10T04:51:17;101680.91;;;6.35;70.91
6020;BME280;3038;51.122;6.840;2023-04-10T04:53:42;101678.06;;;6.38;70.59
6020;BME280;3038;51.122;6.840;2023-04-10T04:56:08;101687.53;;;6.41;70.60
6020;BME280;3038;51.122;6.840;2023-04-10T04:58:33;101685.63;;;6.43;70.19
6020;BME280;3038;51.122;6.840;2023-04-10T05:00:59;101695.97;;;6.46;69.97
6020;BME280;3038;51.122;6.840;2023-04-10T05:03:24;101694.09;;;6.48;70.39
6020;BME280;3038;51.122;6.840;2023-04-10T05:05:50;101691.44;;;6.48;70.10
6020;BME280;3038;51.122;6.840;2023-04-10T05:08:15;101695.75;;;6.49;70.34
6020;BME280;3038;51.122;6.840;2023-04-10T05:10:41;101692.88;;;6.52;70.52
6020;BME280;3038;51.122;6.840;2023-04-10T05:13:06;101690.16;;;6.54;70.18
6020;BME280;3038;51.122;6.840;2023-04-10T05:15:32;101688.38;;;6.54;70.37
6020;BME280;3038;51.122;6.840;2023-04-10T05:17:57;101683.59;;;6.59;70.46
6020;BME280;3038;51.122;6.840;2023-04-10T05:20:22;101691.06;;;6.65;70.24
6020;BME280;3038;51.122;6.840;2023-04-10T05:22:50;101685.44;;;6.70;70.40
6020;BME280;3038;51.122;6.840;2023-04-10T05:25:17;101684.06;;;6.77;70.18
6020;BME280;3038;51.122;6.840;2023-04-10T05:27:42;101687.81;;;6.86;69.51
6020;BME280;3038;51.122;6.840;2023-04-10T05:30:08;101686.19;;;6.96;69.71
6020;BME280;3038;51.122;6.840;2023-04-10T05:32:36;101689.75;;;7.08;69.44
6020;BME280;3038;51.122;6.840;2023-04-10T05:35:01;101687.97;;;7.19;68.91
6020;BME280;3038;51.122;6.840;2023-04-10T05:37:29;101689.72;;;7.32;68.41
6020;BME280;3038;51.122;6.840;2023-04-10T05:39:55;101693.97;;;7.45;67.83
6020;BME280;3038;51.122;6.840;2023-04-10T05:42:20;101704.78;;;7.54;68.28
6020;BME280;3038;51.122;6.840;2023-04-10T05:44:45;101697.13;;;7.62;67.54
6020;BME280;3038;51.122;6.840;2023-04-10T05:47:11;101706.38;;;7.67;67.07
6020;BME280;3038;51.122;6.840;2023-04-10T05:49:36;101700.63;;;7.73;67.20
6020;BME280;3038;51.122;6.840;2023-04-10T05:52:01;101701.84;;;7.81;66.77
6020;BME280;3038;51.122;6.840;2023-04-10T05:54:27;101700.31;;;7.89;67.04
6020;BME280;3038;51.122;6.840;2023-04-10T05:56:52;101691.06;;;7.95;66.86
6020;BME280;3038;51.122;6.840;2023-04-10T05:59:17;101690.47;;;8.03;66.47
6020;BME280;3038;51.122;6.840;2023-04-10T06:01:45;101691.78;;;8.08;65.99
6020;BME280;3038;51.122;6.840;2023-04-10T06:04:11;101692.00;;;8.16;65.67
6020;BME280;3038;51.122;6.840;2023-04-10T06:06:37;101681.53;;;8.26;65.82
6020;BME280;3038;51.122;6.840;2023-04-10T06:09:03;101678.09;;;8.37;64.81
6020;BME280;3038;51.122;6.840;2023-04-10T06:11:28;101685.19;;;8.47;64.37
6020;BME280;3038;51.122;6.840;2023-04-10T06:13:56;101682.63;;;8.57;64.10
6020;BME280;3038;51.122;6.840;2023-04-10T06:16:21;101681.16;;;8.64;64.25
6020;BME280;3038;51.122;6.840;2023-04-10T06:18:46;101673.81;;;8.68;63.72
6020;BME280;3038;51.122;6.840;2023-04-10T06:21:12;101669.59;;;8.77;63.91
6020;BME280;3038;51.122;6.840;2023-04-10T06:23:39;101670.78;;;8.84;63.40
6020;BME280;3038;51.122;6.840;2023-04-10T06:26:06;101669.41;;;8.89;63.40
6020;BME280;3038;51.122;6.840;2023-04-10T06:28:31;101672.28;;;8.97;62.86
6020;BME280;3038;51.122;6.840;2023-04-10T06:30:56;101678.66;;;9.06;63.08
6020;BME280;3038;51.122;6.840;2023-04-10T06:33:22;101676.06;;;9.16;62.98
6020;BME280;3038;51.122;6.840;2023-04-10T06:35:47;101678.81;;;9.25;62.14
6020;BME280;3038;51.122;6.840;2023-04-10T06:38:13;101684.78;;;9.39;62.38
6020;BME280;3038;51.122;6.840;2023-04-10T06:40:39;101686.38;;;9.51;62.16
6020;BME280;3038;51.122;6.840;2023-04-10T06:43:05;101689.00;;;9.62;61.76
6020;BME280;3038;51.122;6.840;2023-04-10T06:45:30;101679.00;;;9.75;61.28
6020;BME280;3038;51.122;6.840;2023-04-10T06:47:55;101677.97;;;9.88;60.39
6020;BME280;3038;51.122;6.840;2023-04-10T06:50:23;101671.56;;;10.00;59.71
6020;BME280;3038;51.122;6.840;2023-04-10T06:52:51;101671.50;;;10.11;59.19
6020;BME280;3038;51.122;6.840;2023-04-10T06:55:17;101668.63;;;10.24;58.92
6020;BME280;3038;51.122;6.840;2023-04-10T06:57:43;101667.97;;;10.32;58.30
6020;BME280;3038;51.122;6.840;2023-04-10T07:00:09;101667.75;;;10.44;58.35
6020;BME280;3038;51.122;6.840;2023-04-10T07:02:35;101663.41;;;10.53;57.79
6020;BME280;3038;51.122;6.840;2023-04-10T07:05:01;101660.38;;;10.67;57.83
6020;BME280;3038;51.122;6.840;2023-04-10T07:07:26;101665.59;;;10.78;56.81
6020;BME280;3038;51.122;6.840;2023-04-10T07:09:52;101674.81;;;10.94;56.36
6020;BME280;3038;51.122;6.840;2023-04-10T07:12:18;101669.38;;;11.05;56.32
6020;BME280;3038;51.122;6.840;2023-04-10T07:14:43;101657.31;;;11.20;56.46
6020;BME280;3038;51.122;6.840;2023-04-10T07:17:08;101660.81;;;11.30;55.21
6020;BME280;3038;51.122;6.840;2023-04-10T07:19:34;101664.03;;;11.44;55.11
6020;BME280;3038;51.122;6.840;2023-04-10T07:22:00;101644.72;;;11.51;54.25
6020;BME280;3038;51.122;6.840;2023-04-10T07:24:25;101642.97;;;11.60;54.41
6020;BME280;3038;51.122;6.840;2023-04-10T07:26:51;101640.03;;;11.63;54.23
6020;BME280;3038;51.122;6.840;2023-04-10T07:29:17;101643.25;;;11.67;54.06
6020;BME280;3038;51.122;6.840;2023-04-10T07:31:42;101642.69;;;11.73;53.72
6020;BME280;3038;51.122;6.840;2023-04-10T07:34:09;101628.94;;;11.77;53.66
6020;BME280;3038;51.122;6.840;2023-04-10T07:36:35;101627.28;;;11.76;53.35
6020;BME280;3038;51.122;6.840;2023-04-10T07:39:00;101635.09;;;11.78;53.33
6020;BME280;3038;51.122;6.840;2023-04-10T07:41:26;101627.28;;;11.76;53.42
6020;BME280;3038;51.122;6.840;2023-04-10T07:43:54;101627.13;;;11.78;52.80
6020;BME280;3038;51.122;6.840;2023-04-10T07:46:19;101624.19;;;11.81;52.88
6020;BME280;3038;51.122;6.840;2023-04-10T07:48:45;101614.38;;;11.81;53.14
6020;BME280;3038;51.122;6.840;2023-04-10T07:51:12;101609.03;;;11.91;52.85
6020;BME280;3038;51.122;6.840;2023-04-10T07:53:37;101606.44;;;12.09;52.78
6020;BME280;3038;51.122;6.840;2023-04-10T07:56:03;101608.91;;;12.20;52.42
6020;BME280;3038;51.122;6.840;2023-04-10T07:58:29;101608.84;;;12.30;52.02
6020;BME280;3038;51.122;6.840;2023-04-10T08:00:55;101605.69;;;12.44;51.08
6020;BME280;3038;51.122;6.840;2023-04-10T08:03:20;101604.22;;;12.50;50.84
6020;BME280;3038;51.122;6.840;2023-04-10T08:05:46;101600.44;;;12.70;50.87
6020;BME280;3038;51.122;6.840;2023-04-10T08:08:15;101606.22;;;12.83;50.25
6020;BME280;3038;51.122;6.840;2023-04-10T08:10:40;101602.09;;;13.07;50.29
6020;BME280;3038;51.122;6.840;2023-04-10T08:13:07;101595.84;;;13.16;49.85
6020;BME280;3038;51.122;6.840;2023-04-10T08:15:34;101592.66;;;13.30;49.36
6020;BME280;3038;51.122;6.840;2023-04-10T08:18:00;101588.56;;;13.44;48.92
6020;BME280;3038;51.122;6.840;2023-04-10T08:20:26;101587.50;;;13.63;48.40
6020;BME280;3038;51.122;6.840;2023-04-10T08:22:53;101591.53;;;13.67;47.74
6020;BME280;3038;51.122;6.840;2023-04-10T08:25:18;101577.44;;;13.83;48.23
6020;BME280;3038;51.122;6.840;2023-04-10T08:27:44;101581.28;;;13.88;47.36
6020;BME280;3038;51.122;6.840;2023-04-10T08:30:09;101574.47;;;13.94;47.26
6020;BME280;3038;51.122;6.840;2023-04-10T08:32:37;101576.00;;;14.05;47.08
6020;BME280;3038;51.122;6.840;2023-04-10T08:35:03;101569.03;;;14.20;46.53
6020;BME280;3038;51.122;6.840;2023-04-10T08:37:28;101563.38;;;14.23;45.61
6020;BME280;3038;51.122;6.840;2023-04-10T08:39:54;101566.91;;;14.32;45.55
6020;BME280;3038;51.122;6.840;2023-04-10T08:42:19;101565.59;;;14.44;45.86
6020;BME280;3038;51.122;6.840;2023-04-10T08:44:47;101556.44;;;14.55;45.06
6020;BME280;3038;51.122;6.840;2023-04-10T08:47:19;101557.47;;;14.62;45.35
6020;BME280;3038;51.122;6.840;2023-04-10T08:50:00;101549.13;;;14.73;44.36
6020;BME280;3038;51.122;6.840;2023-04-10T08:52:33;101547.13;;;14.75;43.35
6020;BME280;3038;51.122;6.840;2023-04-10T08:55:02;101542.75;;;14.74;44.75
6020;BME280;3038;51.122;6.840;2023-04-10T08:57:30;101537.75;;;14.79;45.07
6020;BME280;3038;51.122;6.840;2023-04-10T08:59:57;101523.22;;;14.90;44.92
6020;BME280;3038;51.122;6.840;2023-04-10T09:02:25;101527.38;;;14.93;44.52
6020;BME280;3038;51.122;6.840;2023-04-10T09:04:52;101515.34;;;14.88;43.26
6020;BME280;3038;51.122;6.840;2023-04-10T09:07:20;101513.19;;;14.84;43.83
6020;BME280;3038;51.122;6.840;2023-04-10T09:09:47;101507.47;;;15.03;44.53
6020;BME280;3038;51.122;6.840;2023-04-10T09:12:13;101507.47;;;15.20;43.74
6020;BME280;3038;51.122;6.840;2023-04-10T09:14:40;101505.56;;;15.36;42.56
6020;BME280;3038;51.122;6.840;2023-04-10T09:17:19;101514.59;;;15.43;41.24
6020;BME280;3038;51.122;6.840;2023-04-10T09:19:54;101502.50;;;15.56;41.45
6020;BME280;3038;51.122;6.840;2023-04-10T09:22:30;101509.56;;;15.96;41.05
6020;BME280;3038;51.122;6.840;2023-04-10T09:24:59;101503.56;;;16.17;40.60
6020;BME280;3038;51.122;6.840;2023-04-10T09:27:27;101520.53;;;16.32;40.24
6020;BME280;3038;51.122;6.840;2023-04-10T09:29:55;101510.06;;;16.45;40.18
6020;BME280;3038;51.122;6.840;2023-04-10T09:32:43;101517.19;;;16.53;39.19
6020;BME280;3038;51.122;6.840;2023-04-10T09:35:10;101515.66;;;16.59;39.75
6020;BME280;3038;51.122;6.840;2023-04-10T09:37:37;101525.00;;;16.63;39.35
6020;BME280;3038;51.122;6.840;2023-04-10T09:40:03;101519.94;;;16.68;38.96
6020;BME280;3038;51.122;6.840;2023-04-10T09:42:37;101510.78;;;16.85;38.09
6020;BME280;3038;51.122;6.840;2023-04-10T09:45:04;101495.09;;;16.97;38.48
6020;BME280;3038;51.122;6.840;2023-04-10T09:47:30;101488.16;;;17.17;38.92
6020;BME280;3038;51.122;6.840;2023-04-10T09:49:57;101491.00;;;17.16;37.82
6020;BME280;3038;51.122;6.840;2023-04-10T09:54:53;101479.00;;;17.12;37.87
6020;BME280;3038;51.122;6.840;2023-04-10T09:57:23;101481.03;;;17.10;37.56
6020;BME280;3038;51.122;6.840;2023-04-10T09:59:51;101478.34;;;17.10;37.23
6020;BME280;3038;51.122;6.840;2023-04-10T10:02:22;101469.19;;;17.34;37.27
6020;BME280;3038;51.122;6.840;2023-04-10T10:04:48;101463.16;;;17.46;36.69
6020;BME280;3038;51.122;6.840;2023-04-10T10:07:15;101466.56;;;17.70;36.67
6020;BME280;3038;51.122;6.840;2023-04-10T10:09:42;101454.13;;;17.84;35.95
6020;BME280;3038;51.122;6.840;2023-04-10T10:12:10;101451.69;;;18.04;35.82
6020;BME280;3038;51.122;6.840;2023-04-10T10:14:42;101456.06;;;17.90;35.52
6020;BME280;3038;51.122;6.840;2023-04-10T10:17:10;101458.22;;;17.80;35.74
6020;BME280;3038;51.122;6.840;2023-04-10T10:19:43;101444.25;;;18.06;35.60
6020;BME280;3038;51.122;6.840;2023-04-10T10:22:13;101436.78;;;18.50;35.58
6020;BME280;3038;51.122;6.840;2023-04-10T10:24:45;101431.25;;;18.80;35.16
6020;BME280;3038;51.122;6.840;2023-04-10T10:27:12;101432.88;;;18.74;34.49
6020;BME280;3038;51.122;6.840;2023-04-10T10:29:40;101431.09;;;18.88;34.89
6020;BME280;3038;51.122;6.840;2023-04-10T10:32:07;101422.09;;;19.09;34.30
6020;BME280;3038;51.122;6.840;2023-04-10T10:34:32;101412.97;;;19.04;33.59
6020;BME280;3038;51.122;6.840;2023-04-10T10:36:58;101404.59;;;19.20;34.29
6020;BME280;3038;51.122;6.840;2023-04-10T10:39:40;101406.38;;;19.54;33.33
6020;BME280;3038;51.122;6.840;2023-04-10T10:44:51;101386.22;;;20.58;31.78
6020;BME280;3038;51.122;6.840;2023-04-10T10:47:31;101377.91;;;20.66;30.61
6020;BME280;3038;51.122;6.840;2023-04-10T10:49:58;101365.06;;;20.61;31.46
6020;BME280;3038;51.122;6.840;2023-04-10T10:52:43;101365.47;;;20.65;30.46
6020;BME280;3038;51.122;6.840;2023-04-10T10:58:00;101350.94;;;20.59;31.27
6020;BME280;3038;51.122;6.840;2023-04-10T11:06:02;101334.75;;;20.66;29.95
6020;BME280;3038;51.122;6.840;2023-04-10T11:08:42;101324.78;;;20.60;30.66
6020;BME280;3038;51.122;6.840;2023-04-10T11:11:26;101321.06;;;20.41;31.11
6020;BME280;3038;51.122;6.840;2023-04-10T11:19:00;101320.66;;;20.50;31.04
6020;BME280;3038;51.122;6.840;2023-04-10T11:21:25;101316.06;;;20.44;31.11
6020;BME280;3038;51.122;6.840;2023-04-10T11:31:54;101303.66;;;20.17;31.11
6020;BME280;3038;51.122;6.840;2023-04-10T11:34:19;101293.69;;;20.11;31.61
6020;BME280;3038;51.122;6.840;2023-04-10T11:36:45;101286.25;;;20.26;31.83
6020;BME280;3038;51.122;6.840;2023-04-10T11:39:13;101273.81;;;20.12;32.07
6020;BME280;3038;51.122;6.840;2023-04-10T11:41:43;101280.03;;;19.79;32.73
6020;BME280;3038;51.122;6.840;2023-04-10T11:44:34;101281.19;;;19.30;32.53
6020;BME280;3038;51.122;6.840;2023-04-10T11:47:03;101268.22;;;18.92;33.12
6020;BME280;3038;51.122;6.840;2023-04-10T11:49:31;101264.81;;;18.70;33.44
6020;BME280;3038;51.122;6.840;2023-04-10T11:51:57;101257.81;;;18.76;34.02
6020;BME280;3038;51.122;6.840;2023-04-10T11:54:23;101261.56;;;18.82;34.07
6020;BME280;3038;51.122;6.840;2023-04-10T11:56:56;101248.94;;;18.82;33.75
6020;BME280;3038;51.122;6.840;2023-04-10T11:59:22;101254.09;;;18.77;33.63
6020;BME280;3038;51.122;6.840;2023-04-10T12:01:49;101258.72;;;18.96;33.70
6020;BME280;3038;51.122;6.840;2023-04-10T12:04:20;101246.16;;;19.17;33.98
6020;BME280;3038;51.122;6.840;2023-04-10T12:06:52;101237.69;;;19.26;33.98
6020;BME280;3038;51.122;6.840;2023-04-10T12:09:21;101231.22;;;19.08;34.02
6020;BME280;3038;51.122;6.840;2023-04-10T12:14:18;101230.16;;;19.02;33.90
6020;BME280;3038;51.122;6.840;2023-04-10T12:16:44;101227.69;;;19.14;33.92
6020;BME280;3038;51.122;6.840;2023-04-10T12:19:11;101230.59;;;19.19;33.73
6020;BME280;3038;51.122;6.840;2023-04-10T12:21:39;101227.31;;;19.17;34.10
6020;BME280;3038;51.122;6.840;2023-04-10T12:24:06;101213.66;;;19.25;34.01
6020;BME280;3038;51.122;6.840;2023-04-10T12:26:34;101206.81;;;19.29;33.71
6020;BME280;3038;51.122;6.840;2023-04-10T12:28:59;101210.09;;;19.18;33.67
6020;BME280;3038;51.122;6.840;2023-04-10T12:31:32;101207.19;;;19.19;33.75
6020;BME280;3038;51.122;6.840;2023-04-10T12:33:58;101198.31;;;19.32;33.97
6020;BME280;3038;51.122;6.840;2023-04-10T12:36:25;101202.28;;;19.49;33.44
6020;BME280;3038;51.122;6.840;2023-04-10T12:38:57;101193.38;;;19.56;33.63
6020;BME280;3038;51.122;6.840;2023-04-10T12:41:30;101190.91;;;19.67;32.66
6020;BME280;3038;51.122;6.840;2023-04-10T12:44:14;101188.81;;;19.76;32.80
6020;BME280;3038;51.122;6.840;2023-04-10T12:46:41;101183.41;;;19.96;32.30
6020;BME280;3038;51.122;6.840;2023-04-10T12:49:14;101173.81;;;20.20;31.41
6020;BME280;3038;51.122;6.840;2023-04-10T12:54:10;101160.88;;;20.55;31.57
6020;BME280;3038;51.122;6.840;2023-04-10T12:56:43;101159.88;;;20.81;31.33
6020;BME280;3038;51.122;6.840;2023-04-10T12:59:08;101155.72;;;21.42;30.75
6020;BME280;3038;51.122;6.840;2023-04-10T13:01:36;101153.84;;;21.67;29.79
6020;BME280;3038;51.122;6.840;2023-04-10T13:04:02;101141.19;;;21.86;30.24
6020;BME280;3038;51.122;6.840;2023-04-10T13:06:27;101138.69;;;21.85;29.72
6020;BME280;3038;51.122;6.840;2023-04-10T13:08:53;101122.13;;;21.81;30.03
6020;BME280;3038;51.122;6.840;2023-04-10T13:11:20;101120.50;;;21.55;30.16
6020;BME280;3038;51.122;6.840;2023-04-10T13:13:46;101130.16;;;21.13;30.10
6020;BME280;3038;51.122;6.840;2023-04-10T13:16:12;101118.34;;;20.82;30.56
6020;BME280;3038;51.122;6.840;2023-04-10T13:18:38;101122.16;;;20.68;30.62
6020;BME280;3038;51.122;6.840;2023-04-10T13:21:03;101122.09;;;20.81;31.36
6020;BME280;3038;51.122;6.840;2023-04-10T13:23:29;101113.25;;;20.99;31.01
6020;BME280;3038;51.122;6.840;2023-04-10T13:25:54;101105.53;;;21.02;30.97
6020;BME280;3038;51.122;6.840;2023-04-10T13:28:21;101106.16;;;21.04;31.20
6020;BME280;3038;51.122;6.840;2023-04-10T13:30:46;101098.66;;;21.07;30.90
6020;BME280;3038;51.122;6.840;2023-04-10T13:33:12;101085.53;;;20.85;30.70
6020;BME280;3038;51.122;6.840;2023-04-10T13:35:37;101085.97;;;20.82;30.87
6020;BME280;3038;51.122;6.840;2023-04-10T13:38:04;101075.97;;;20.89;30.95
6020;BME280;3038;51.122;6.840;2023-04-10T13:40:29;101069.69;;;20.95;30.79
6020;BME280;3038;51.122;6.840;2023-04-10T13:42:55;101065.00;;;21.09;30.36
6020;BME280;3038;51.122;6.840;2023-04-10T13:45:20;101058.88;;;20.95;29.14
6020;BME280;3038;51.122;6.840;2023-04-10T13:47:46;101043.66;;;20.76;28.07
6020;BME280;3038;51.122;6.840;2023-04-10T13:50:12;101044.09;;;20.73;28.61
6020;BME280;3038;51.122;6.840;2023-04-10T13:52:37;101034.13;;;20.73;29.18
6020;BME280;3038;51.122;6.840;2023-04-10T13:55:03;101030.69;;;20.60;29.77
6020;BME280;3038;51.122;6.840;2023-04-10T13:57:28;101036.09;;;20.60;30.28
6020;BME280;3038;51.122;6.840;2023-04-10T13:59:54;101030.25;;;20.63;29.89